Time;durP1;ratioP1;P1;durP2;ratioP2;P2;SDS_P1;SDS_P2;PMS_P1;PMS_P2;Temp;Humidity;BMP_temperature;BMP_pressure;BME280_temperature;BME280_humidity;BME280_pressure;Samples;Min_cycle;Max_cycle;Signal;HPM_P1;HPM_P2
2023/01/04 00:00:33;;;;;;;12.18;2.83;;;8.20;99.90;;;;;;5083964;28;20152;-64
2023/01/04 00:02:59;;;;;;;14.55;3.47;;;8.20;99.90;;;;;;5093649;28;20097;-65
2023/01/04 00:05:28;;;;;;;11.60;3.45;;;8.20;99.90;;;;;;5090398;28;20146;-63
2023/01/04 00:07:54;;;;;;;18.40;3.28;;;8.20;99.90;;;;;;5057062;28;20130;-65
2023/01/04 00:10:21;;;;;;;11.02;2.88;;;8.20;99.90;;;;;;5071635;28;20048;-64
2023/01/04 00:12:48;;;;;;;9.15;3.40;;;8.20;99.90;;;;;;5060857;28;20044;-64
2023/01/04 00:15:15;;;;;;;10.82;3.30;;;8.20;99.90;;;;;;5093626;28;20368;-63
2023/01/04 00:17:42;;;;;;;9.27;3.53;;;8.20;99.90;;;;;;5081078;28;20086;-63
2023/01/04 00:20:10;;;;;;;10.57;3.03;;;8.20;99.90;;;;;;5083687;28;20052;-63
2023/01/04 00:22:38;;;;;;;11.20;3.03;;;8.20;99.90;;;;;;5075382;28;20110;-65
2023/01/04 00:25:06;;;;;;;12.27;3.65;;;8.20;99.90;;;;;;5073772;28;20087;-64
2023/01/04 00:27:32;;;;;;;12.57;3.25;;;8.20;99.90;;;;;;5071445;28;20095;-66
2023/01/04 00:29:59;;;;;;;12.05;3.13;;;8.20;99.90;;;;;;5079749;28;20404;-69
2023/01/04 00:32:26;;;;;;;9.20;3.40;;;8.20;99.90;;;;;;5055690;28;20048;-67
2023/01/04 00:34:53;;;;;;;9.98;3.22;;;8.20;99.90;;;;;;5093041;28;20048;-64
2023/01/04 00:37:20;;;;;;;11.13;3.47;;;8.20;99.90;;;;;;5070985;28;20052;-51
2023/01/04 00:39:48;;;;;;;8.40;3.40;;;8.20;99.90;;;;;;5071487;28;20060;-63
2023/01/04 00:42:15;;;;;;;15.77;3.92;;;8.10;99.90;;;;;;5055755;28;20443;-61
2023/01/04 00:44:41;;;;;;;7.03;3.05;;;8.10;99.90;;;;;;5072738;28;20040;-62
2023/01/04 00:47:08;;;;;;;13.88;3.50;;;8.10;99.90;;;;;;5071287;28;20099;-60
2023/01/04 00:49:35;;;;;;;16.77;3.83;;;8.10;99.90;;;;;;5060065;28;20048;-61
2023/01/04 00:52:02;;;;;;;12.75;3.53;;;8.10;99.90;;;;;;5090627;28;20055;-59
2023/01/04 00:54:29;;;;;;;13.15;3.75;;;8.10;99.90;;;;;;5092305;28;20048;-58
2023/01/04 00:56:57;;;;;;;14.20;3.47;;;8.00;99.90;;;;;;5073795;28;20048;-55
2023/01/04 00:59:24;;;;;;;8.80;3.28;;;8.00;99.90;;;;;;5085515;28;20117;-58
2023/01/04 01:01:51;;;;;;;12.85;3.55;;;8.00;99.90;;;;;;5086513;28;20110;-60
2023/01/04 01:04:19;;;;;;;10.38;3.13;;;8.00;99.90;;;;;;5072726;28;20140;-59
2023/01/04 01:06:46;;;;;;;9.43;3.28;;;8.00;99.90;;;;;;5075643;28;20126;-57
2023/01/04 01:09:13;;;;;;;9.88;3.00;;;8.00;99.90;;;;;;5080141;28;20093;-57
2023/01/04 01:11:40;;;;;;;11.57;3.28;;;8.00;99.90;;;;;;5056997;28;20092;-62
2023/01/04 01:14:12;;;;;;;8.30;3.33;;;8.00;99.90;;;;;;5072359;28;20053;-55
2023/01/04 01:16:39;;;;;;;7.82;3.03;;;8.00;99.90;;;;;;5069733;28;20450;-58
2023/01/04 01:19:05;;;;;;;16.05;3.90;;;8.00;99.90;;;;;;5075603;28;20132;-58
2023/01/04 01:21:32;;;;;;;11.30;3.55;;;8.10;99.90;;;;;;5058447;28;20094;-58
2023/01/04 01:23:59;;;;;;;12.88;3.80;;;8.10;99.90;;;;;;5057940;28;20053;-57
2023/01/04 01:26:26;;;;;;;7.47;3.35;;;8.00;99.90;;;;;;5073708;28;20129;-57
2023/01/04 01:28:53;;;;;;;8.77;3.53;;;8.00;99.90;;;;;;5056742;28;20084;-56
2023/01/04 01:31:22;;;;;;;14.85;3.50;;;8.00;99.90;;;;;;5075589;28;20560;-56
2023/01/04 01:33:49;;;;;;;10.07;3.47;;;8.10;99.90;;;;;;5075496;28;20048;-55
2023/01/04 01:36:17;;;;;;;10.80;3.30;;;8.10;99.90;;;;;;5073806;28;20040;-55
2023/01/04 01:38:44;;;;;;;11.70;3.67;;;8.10;99.90;;;;;;5080193;28;20105;-59
2023/01/04 01:41:16;;;;;;;8.23;3.05;;;8.10;99.90;;;;;;5074688;28;20554;-56
2023/01/04 01:43:46;;;;;;;;;;;8.10;99.90;;;;;;5093178;28;20127;-62
2023/01/04 01:46:13;;;;;;;12.05;3.58;;;8.00;99.90;;;;;;5089517;28;19967;-62
2023/01/04 01:48:41;;;;;;;10.65;3.33;;;8.00;99.90;;;;;;5095018;28;20085;-61
2023/01/04 01:51:08;;;;;;;8.10;2.83;;;8.10;99.90;;;;;;5087265;28;20098;-61
2023/01/04 01:53:36;;;;;;;8.75;3.08;;;8.10;99.90;;;;;;5077986;28;20493;-62
2023/01/04 01:56:03;;;;;;;11.50;3.03;;;8.10;99.90;;;;;;5056966;28;20503;-59
2023/01/04 01:58:32;;;;;;;14.02;3.05;;;8.10;99.90;;;;;;5090229;28;20381;-59
2023/01/04 02:00:59;;;;;;;8.18;3.47;;;8.10;99.90;;;;;;5076846;28;20086;-59
2023/01/04 02:03:28;;;;;;;9.65;2.80;;;8.10;99.90;;;;;;5077685;28;20468;-58
2023/01/04 02:05:56;;;;;;;9.20;3.13;;;8.10;99.90;;;;;;5073984;28;20103;-58
2023/01/04 02:08:23;;;;;;;8.77;3.05;;;8.20;99.90;;;;;;5061173;28;20522;-57
2023/01/04 02:10:50;;;;;;;11.30;3.33;;;8.20;99.90;;;;;;5065292;28;20052;-57
2023/01/04 02:13:18;;;;;;;8.88;2.97;;;8.20;99.90;;;;;;5055677;28;20052;-56
2023/01/04 02:15:56;;;;;;;6.40;2.92;;;8.20;99.90;;;;;;5073872;28;20044;-57
2023/01/04 02:18:26;;;;;;;4.60;2.50;;;8.20;99.90;;;;;;5065436;28;20056;-57
2023/01/04 02:20:53;;;;;;;4.30;2.58;;;8.20;99.90;;;;;;5094830;28;20087;-57
2023/01/04 02:23:28;;;;;;;6.82;2.65;;;8.20;99.90;;;;;;5076154;28;20087;-57
2023/01/04 02:26:27;;;;;;;6.10;2.60;;;8.20;99.90;;;;;;5073481;28;20076;-57
2023/01/04 02:29:05;;;;;;;4.93;2.70;;;8.20;99.90;;;;;;5075961;28;20083;-57
2023/01/04 02:31:35;;;;;;;4.13;2.00;;;8.20;99.90;;;;;;5074430;28;20442;-56
2023/01/04 02:34:04;;;;;;;6.65;2.47;;;8.30;99.90;;;;;;5074069;28;20048;-56
2023/01/04 02:36:33;;;;;;;4.63;2.50;;;8.30;99.90;;;;;;5075831;28;20051;-58
2023/01/04 02:39:09;;;;;;;6.50;2.38;;;8.30;99.90;;;;;;5056449;28;20098;-56
2023/01/04 02:41:39;;;;;;;5.82;2.63;;;8.30;99.90;;;;;;5059416;28;20053;-58
2023/01/04 02:47:01;;;;;;;4.97;2.42;;;8.40;99.90;;;;;;5063367;28;20044;-56
2023/01/04 02:52:13;;;;;;;6.45;2.33;;;8.40;99.90;;;;;;5073347;28;20052;-54
2023/01/04 02:54:39;;;;;;;4.70;2.50;;;8.40;99.90;;;;;;5073938;28;20116;-62
2023/01/04 02:57:22;;;;;;;5.00;2.30;;;8.40;99.90;;;;;;5077995;28;20106;-65
2023/01/04 03:00:01;;;;;;;5.43;1.88;;;8.50;99.90;;;;;;5074565;28;20079;-67
2023/01/04 03:08:22;;;;;;;2.90;1.80;;;8.50;99.90;;;;;;5070310;28;20523;-58
2023/01/04 03:10:51;;;;;;;4.47;2.28;;;8.60;99.90;;;;;;5091884;28;20087;-59
2023/01/04 03:13:17;;;;;;;5.82;2.55;;;8.60;99.90;;;;;;5076397;28;20048;-57
2023/01/04 03:15:46;;;;;;;3.53;2.10;;;8.60;99.90;;;;;;5058108;28;20059;-59
2023/01/04 03:18:16;;;;;;;7.30;2.28;;;8.60;99.90;;;;;;5072864;28;20049;-58
2023/01/04 03:20:43;;;;;;;6.13;2.17;;;8.70;99.90;;;;;;5054991;28;20087;-57
2023/01/04 03:37:01;;;;;;;4.22;1.92;;;9.00;99.90;;;;;;5072840;28;20083;-57
2023/01/04 03:50:51;;;;;;;4.10;2.10;;;9.20;99.90;;;;;;5035733;28;20466;-59
2023/01/04 03:53:17;;;;;;;2.20;2.00;;;9.30;99.90;;;;;;5053336;28;20539;-57
2023/01/04 03:55:44;;;;;;;2.70;2.00;;;9.30;99.90;;;;;;5088760;28;20125;-63
2023/01/04 03:58:11;;;;;;;4.72;2.08;;;9.30;99.90;;;;;;5091873;28;20048;-61
2023/01/04 04:00:38;;;;;;;2.50;1.88;;;9.40;99.90;;;;;;5073014;28;20101;-59
2023/01/04 04:03:11;;;;;;;3.28;1.98;;;9.40;99.90;;;;;;5087395;28;20056;-62
2023/01/04 04:08:24;;;;;;;3.45;1.70;;;9.50;99.90;;;;;;5067565;28;20048;-63
2023/01/04 04:10:51;;;;;;;2.13;1.80;;;9.50;99.90;;;;;;5076241;28;20048;-61
2023/01/04 04:13:18;;;;;;;3.42;2.08;;;9.50;99.90;;;;;;5092069;28;20044;-61
2023/01/04 04:15:44;;;;;;;3.75;2.20;;;9.60;99.90;;;;;;5077097;28;20052;-62
2023/01/04 04:18:11;;;;;;;3.00;2.40;;;9.60;99.90;;;;;;5056662;28;20087;-50
2023/01/04 04:20:38;;;;;;;4.07;2.40;;;9.60;99.90;;;;;;5052989;28;20106;-57
2023/01/04 04:23:05;;;;;;;2.92;2.63;;;9.70;99.90;;;;;;5072374;28;20110;-56
2023/01/04 04:25:33;;;;;;;3.58;2.47;;;9.70;99.90;;;;;;5066108;28;20500;-56
2023/01/04 04:28:00;;;;;;;3.47;2.60;;;9.70;99.90;;;;;;5037752;28;20472;-57
2023/01/04 04:30:27;;;;;;;3.60;2.80;;;9.70;99.90;;;;;;5069250;28;20056;-58
2023/01/04 04:32:53;;;;;;;8.95;2.88;;;9.80;99.90;;;;;;5078726;28;20087;-55
2023/01/04 04:35:20;;;;;;;3.88;2.90;;;9.80;99.90;;;;;;5090450;28;20465;-57
2023/01/04 04:37:47;;;;;;;2.85;2.40;;;9.80;99.90;;;;;;5053610;28;20068;-56
2023/01/04 04:42:56;;;;;;;5.65;2.85;;;9.90;99.90;;;;;;5050837;28;20121;-56
2023/01/04 04:45:23;;;;;;;5.90;3.50;;;9.90;99.90;;;;;;5084149;28;20079;-55
2023/01/04 04:47:49;;;;;;;8.98;3.42;;;9.90;99.90;;;;;;5092367;28;20086;-57
2023/01/04 04:50:16;;;;;;;4.07;3.40;;;10.00;99.90;;;;;;5057977;28;20087;-55
2023/01/04 04:52:43;;;;;;;5.22;3.60;;;10.00;99.90;;;;;;5057131;28;20133;-57
2023/01/04 04:55:10;;;;;;;7.45;3.95;;;10.00;99.90;;;;;;5076231;28;20060;-57
2023/01/04 04:57:37;;;;;;;6.93;4.15;;;10.00;99.90;;;;;;5090756;28;20127;-55
2023/01/04 05:00:07;;;;;;;6.93;4.45;;;10.00;99.90;;;;;;5075491;28;20051;-47
2023/01/04 05:02:33;;;;;;;6.50;4.00;;;10.10;99.90;;;;;;5090690;28;20052;-55
2023/01/04 05:05:00;;;;;;;4.95;4.28;;;10.00;99.90;;;;;;5093534;28;20177;-58
2023/01/04 05:07:27;;;;;;;6.03;4.38;;;10.10;99.90;;;;;;5078673;28;20090;-58
2023/01/04 05:09:54;;;;;;;5.18;4.55;;;10.10;99.90;;;;;;5069963;28;20384;-58
2023/01/04 05:15:07;;;;;;;5.53;4.97;;;10.20;99.90;;;;;;5084586;28;20048;-55
2023/01/04 05:17:34;;;;;;;6.45;5.05;;;10.20;99.90;;;;;;5060188;28;20056;-63
2023/01/04 05:20:01;;;;;;;5.03;4.55;;;10.20;99.90;;;;;;5079082;28;20056;-58
2023/01/04 05:22:27;;;;;;;5.28;4.78;;;10.20;99.90;;;;;;5057947;28;20088;-57
2023/01/04 05:24:54;;;;;;;6.25;5.25;;;10.20;99.90;;;;;;5059044;28;20193;-57
2023/01/04 05:27:21;;;;;;;5.70;5.10;;;10.30;99.90;;;;;;5054983;28;20140;-56
2023/01/04 05:32:33;;;;;;;7.50;5.88;;;10.30;99.90;;;;;;5073782;28;20481;-56
2023/01/04 05:35:00;;;;;;;7.75;6.03;;;10.40;99.90;;;;;;5072118;28;20048;-54
2023/01/04 05:37:27;;;;;;;8.35;6.20;;;10.40;99.90;;;;;;5071712;28;20523;-58
2023/01/04 05:39:54;;;;;;;9.20;6.30;;;10.40;99.90;;;;;;5057470;28;20106;-57
2023/01/04 05:42:27;;;;;;;10.13;6.60;;;10.40;99.90;;;;;;5075851;28;20087;-57
2023/01/04 05:44:54;;;;;;;9.98;6.68;;;10.40;99.90;;;;;;5057473;28;20412;-55
2023/01/04 05:47:21;;;;;;;6.97;5.63;;;10.40;99.90;;;;;;5074388;28;20048;-57
2023/01/04 05:49:49;;;;;;;12.95;6.60;;;10.50;99.90;;;;;;5057423;28;20048;-49
2023/01/04 05:52:16;;;;;;;7.07;6.00;;;10.60;99.90;;;;;;5056496;28;20048;-56
2023/01/04 05:54:42;;;;;;;10.25;5.90;;;10.50;99.90;;;;;;5057192;28;20052;-56
2023/01/04 05:57:09;;;;;;;10.88;6.15;;;10.50;99.90;;;;;;5055893;28;20632;-56
2023/01/04 05:59:36;;;;;;;12.02;6.10;;;10.50;99.90;;;;;;5074230;28;20087;-54
2023/01/04 06:02:03;;;;;;;9.35;6.32;;;10.60;99.90;;;;;;5073196;28;20076;-55
2023/01/04 06:04:30;;;;;;;11.07;6.03;;;10.60;99.90;;;;;;5056376;28;20451;-54
2023/01/04 06:06:58;;;;;;;12.02;6.22;;;10.60;99.90;;;;;;5072739;28;20141;-56
2023/01/04 06:09:26;;;;;;;8.88;5.88;;;10.60;99.90;;;;;;5074780;28;20387;-56
2023/01/04 06:11:53;;;;;;;11.05;5.97;;;10.60;99.90;;;;;;5072720;28;20048;-55
2023/01/04 06:14:20;;;;;;;8.30;5.30;;;10.60;99.90;;;;;;5072653;28;20584;-54
2023/01/04 06:16:47;;;;;;;9.32;5.13;;;10.70;99.90;;;;;;5073859;28;20131;-55
2023/01/04 06:19:14;;;;;;;7.68;4.90;;;10.70;99.90;;;;;;5055551;28;20139;-55
2023/01/04 06:21:40;;;;;;;8.20;5.05;;;10.70;99.90;;;;;;5056789;28;20056;-57
2023/01/04 06:24:10;;;;;;;6.00;4.50;;;10.70;99.90;;;;;;5056789;28;20518;-55
2023/01/04 06:26:37;;;;;;;8.60;4.97;;;10.80;99.90;;;;;;5069556;28;20044;-56
2023/01/04 06:29:04;;;;;;;5.93;4.53;;;10.70;99.90;;;;;;5071031;28;20083;-50
2023/01/04 06:31:32;;;;;;;7.35;4.40;;;10.80;99.90;;;;;;5074202;28;20080;-53
2023/01/04 06:33:59;;;;;;;8.30;3.92;;;10.70;99.90;;;;;;5072333;28;20076;-59
2023/01/04 06:36:26;;;;;;;7.57;4.40;;;10.80;99.90;;;;;;5052415;28;20536;-56
2023/01/04 06:38:52;;;;;;;5.07;3.60;;;10.80;99.90;;;;;;5074174;28;20095;-52
2023/01/04 06:41:21;;;;;;;4.30;3.80;;;10.90;99.90;;;;;;5072212;28;20106;-53
2023/01/04 06:43:48;;;;;;;5.63;3.15;;;10.80;99.90;;;;;;5073529;28;20052;-56
2023/01/04 06:46:14;;;;;;;4.63;2.75;;;10.80;99.90;;;;;;5054839;28;20045;-59
2023/01/04 06:48:42;;;;;;;4.10;2.90;;;10.90;99.90;;;;;;5075462;28;20455;-59
2023/01/04 06:51:09;;;;;;;3.70;2.85;;;10.90;99.90;;;;;;5076085;28;20044;-64
2023/01/04 06:53:35;;;;;;;4.68;3.10;;;10.90;99.90;;;;;;5058933;28;20114;-60
2023/01/04 06:56:02;;;;;;;3.15;2.40;;;10.90;99.90;;;;;;5078599;28;20056;-60
2023/01/04 06:58:30;;;;;;;3.10;2.30;;;10.90;99.90;;;;;;5078150;28;20098;-59
2023/01/04 07:00:57;;;;;;;2.92;2.05;;;10.90;99.90;;;;;;5078371;28;20119;-61
2023/01/04 07:03:24;;;;;;;3.47;1.92;;;10.90;99.90;;;;;;5060467;28;20052;-60
2023/01/04 07:05:51;;;;;;;2.70;2.47;;;10.90;99.90;;;;;;5062009;28;20071;-60
2023/01/04 07:08:17;;;;;;;4.35;2.50;;;10.90;99.90;;;;;;5061332;28;20479;-57
2023/01/04 07:10:44;;;;;;;5.75;2.35;;;10.90;99.90;;;;;;5078469;28;20060;-61
2023/01/04 07:13:11;;;;;;;3.20;2.78;;;10.90;99.90;;;;;;5073770;28;20554;-59
2023/01/04 07:15:39;;;;;;;3.58;2.65;;;10.90;99.90;;;;;;5075088;28;20049;-55
2023/01/04 07:18:06;;;;;;;3.42;2.45;;;10.90;99.90;;;;;;5075632;28;20076;-61
2023/01/04 07:20:33;;;;;;;3.13;2.83;;;10.90;99.90;;;;;;5057156;28;20106;-60
2023/01/04 07:23:00;;;;;;;5.35;3.13;;;10.90;99.90;;;;;;5056918;28;20477;-60
2023/01/04 07:25:26;;;;;;;3.22;2.85;;;10.90;99.90;;;;;;5078577;28;20084;-62
2023/01/04 07:27:53;;;;;;;3.88;2.70;;;11.00;99.90;;;;;;5078439;28;20076;-61
2023/01/04 07:30:20;;;;;;;6.88;3.08;;;11.00;99.90;;;;;;5057527;28;20106;-58
2023/01/04 07:32:48;;;;;;;3.38;2.85;;;10.90;99.90;;;;;;5071717;28;20048;-58
2023/01/04 07:35:15;;;;;;;3.20;2.67;;;11.00;99.90;;;;;;5059015;28;20052;-60
2023/01/04 07:37:42;;;;;;;2.58;2.35;;;11.00;99.90;;;;;;5076519;28;20113;-59
2023/01/04 07:40:10;;;;;;;5.72;2.80;;;11.00;99.90;;;;;;5076400;28;20385;-60
2023/01/04 07:42:37;;;;;;;3.40;2.90;;;11.00;99.90;;;;;;5075011;28;20078;-59
2023/01/04 07:45:04;;;;;;;3.28;2.67;;;11.00;99.90;;;;;;5056168;28;20087;-59
2023/01/04 07:47:31;;;;;;;5.65;3.08;;;11.00;99.90;;;;;;5077362;28;20074;-59
2023/01/04 07:50:00;;;;;;;3.47;2.72;;;11.00;99.90;;;;;;5057623;28;20107;-58
2023/01/04 07:52:26;;;;;;;4.93;2.85;;;11.00;99.90;;;;;;5053571;28;20048;-58
2023/01/04 07:54:54;;;;;;;4.53;3.17;;;11.00;99.90;;;;;;5068441;28;20056;-58
2023/01/04 07:57:20;;;;;;;4.15;2.83;;;11.00;99.90;;;;;;5073319;28;20110;-55
2023/01/04 07:59:47;;;;;;;4.75;3.33;;;11.00;99.90;;;;;;5073277;28;20082;-57
2023/01/04 08:02:14;;;;;;;4.65;3.38;;;11.00;99.90;;;;;;5070624;28;20083;-56
2023/01/04 08:04:41;;;;;;;9.45;3.83;;;11.00;99.90;;;;;;5053864;28;20129;-57
2023/01/04 08:07:09;;;;;;;5.88;3.78;;;11.00;99.90;;;;;;5054989;28;20084;-57
2023/01/04 08:09:36;;;;;;;6.00;4.18;;;11.00;99.90;;;;;;5072546;28;20484;-56
2023/01/04 08:12:03;;;;;;;5.10;3.95;;;11.00;99.90;;;;;;5070764;28;20044;-57
2023/01/04 08:14:30;;;;;;;6.97;4.25;;;11.00;99.90;;;;;;5072233;28;20048;-59
2023/01/04 08:16:56;;;;;;;8.05;4.60;;;11.00;99.90;;;;;;5074963;28;20094;-60
2023/01/04 08:19:23;;;;;;;4.82;4.13;;;11.00;99.90;;;;;;5073808;28;20084;-59
2023/01/04 08:21:50;;;;;;;6.63;4.45;;;11.00;99.90;;;;;;5073764;28;20083;-57
2023/01/04 08:24:19;;;;;;;4.57;4.07;;;11.10;99.90;;;;;;5072736;28;20088;-55
2023/01/04 08:26:46;;;;;;;6.30;4.32;;;11.10;99.90;;;;;;5075220;28;20060;-57
2023/01/04 08:29:13;;;;;;;5.43;4.43;;;11.10;99.90;;;;;;5079475;28;20577;-58
2023/01/04 08:31:39;;;;;;;5.28;4.38;;;11.10;99.90;;;;;;5078139;28;20080;-57
2023/01/04 08:34:07;;;;;;;6.70;4.13;;;11.10;99.90;;;;;;5059610;28;20130;-55
2023/01/04 08:36:34;;;;;;;7.20;4.53;;;11.20;99.90;;;;;;5076849;28;20117;-56
2023/01/04 08:39:03;;;;;;;9.38;4.53;;;11.10;99.90;;;;;;5061202;28;20079;-55
2023/01/04 08:41:33;;;;;;;7.35;4.20;;;11.20;99.90;;;;;;5079447;28;20127;-55
2023/01/04 08:44:00;;;;;;;9.85;4.53;;;11.10;99.90;;;;;;5079064;28;20044;-54
2023/01/04 08:46:26;;;;;;;5.28;3.60;;;11.10;99.90;;;;;;5077404;28;20059;-56
2023/01/04 08:48:53;;;;;;;6.57;3.47;;;11.10;99.90;;;;;;5078380;28;20443;-58
2023/01/04 08:51:20;;;;;;;4.88;3.50;;;11.10;99.90;;;;;;5077388;28;20178;-58
2023/01/04 08:53:47;;;;;;;5.10;3.72;;;11.20;99.90;;;;;;5080236;28;20546;-58
2023/01/04 08:56:14;;;;;;;4.78;3.10;;;11.20;99.90;;;;;;5062806;28;20133;-60
2023/01/04 08:58:42;;;;;;;5.10;2.90;;;11.20;99.90;;;;;;5063654;28;20052;-59
2023/01/04 09:01:10;;;;;;;5.38;2.90;;;11.20;99.90;;;;;;5079428;28;20454;-60
2023/01/04 09:03:37;;;;;;;4.97;2.88;;;11.20;99.90;;;;;;5060944;28;20048;-58
2023/01/04 09:06:04;;;;;;;4.15;2.58;;;11.20;99.90;;;;;;5080141;28;20063;-54
2023/01/04 09:08:32;;;;;;;3.72;2.50;;;11.20;99.90;;;;;;5061994;28;20471;-59
2023/01/04 09:10:59;;;;;;;5.05;2.75;;;11.20;99.90;;;;;;5080959;28;20064;-61
2023/01/04 09:13:26;;;;;;;3.67;2.60;;;11.30;99.90;;;;;;5079537;28;20087;-57
2023/01/04 09:15:54;;;;;;;3.80;2.33;;;11.20;99.90;;;;;;5061561;28;20045;-55
2023/01/04 09:18:20;;;;;;;5.25;2.90;;;11.30;99.90;;;;;;5077633;28;20084;-57
2023/01/04 09:20:47;;;;;;;2.38;2.08;;;11.30;99.90;;;;;;5060986;28;20102;-57
2023/01/04 09:23:14;;;;;;;4.35;2.15;;;11.30;99.90;;;;;;5077842;28;20090;-56
2023/01/04 09:25:41;;;;;;;5.28;2.00;;;11.20;99.90;;;;;;5079813;28;20091;-58
2023/01/04 09:28:08;;;;;;;3.22;1.90;;;11.30;99.90;;;;;;5080757;28;20052;-60
2023/01/04 09:30:35;;;;;;;3.55;2.00;;;11.30;99.90;;;;;;5080284;28;20483;-59
2023/01/04 09:33:03;;;;;;;2.20;1.77;;;11.30;99.90;;;;;;5078308;28;20060;-59
2023/01/04 09:35:30;;;;;;;1.92;1.73;;;11.30;99.90;;;;;;5062855;28;20052;-59
2023/01/04 09:37:57;;;;;;;3.53;1.50;;;11.30;99.90;;;;;;5062261;28;20102;-61
2023/01/04 09:40:27;;;;;;;4.72;1.75;;;11.30;99.90;;;;;;5077719;28;20084;-54
2023/01/04 09:42:54;;;;;;;2.78;1.60;;;11.30;99.90;;;;;;5076970;28;20087;-57
2023/01/04 09:45:22;;;;;;;3.53;1.50;;;11.30;99.90;;;;;;5059429;28;20061;-60
2023/01/04 09:47:51;;;;;;;4.75;1.50;;;11.30;99.90;;;;;;5076685;28;20040;-63
2023/01/04 09:50:22;;;;;;;3.65;1.50;;;11.30;99.90;;;;;;5060319;28;20049;-57
2023/01/04 09:52:56;;;;;;;4.93;1.50;;;11.30;99.90;;;;;;5059890;28;20048;-61
2023/01/04 09:55:25;;;;;;;2.65;1.45;;;11.30;99.90;;;;;;5077831;28;20056;-59
2023/01/04 09:57:53;;;;;;;2.47;1.20;;;11.30;99.90;;;;;;5077727;28;20090;-61
2023/01/04 10:00:21;;;;;;;1.55;1.10;;;11.30;99.90;;;;;;5059126;28;20102;-61
2023/01/04 10:02:49;;;;;;;2.38;1.13;;;11.40;99.90;;;;;;5056438;28;20052;-59
2023/01/04 10:05:17;;;;;;;1.52;0.93;;;11.40;99.90;;;;;;5059007;28;20102;-61
2023/01/04 10:07:45;;;;;;;2.17;1.10;;;11.40;99.90;;;;;;5059342;28;20492;-59
2023/01/04 10:10:14;;;;;;;2.63;1.20;;;11.40;99.90;;;;;;5057411;28;20404;-60
2023/01/04 10:12:45;;;;;;;2.50;1.02;;;11.40;99.90;;;;;;5056401;28;20044;-55
2023/01/04 10:15:21;;;;;;;3.90;1.45;;;11.40;99.90;;;;;;5056376;28;20083;-60
2023/01/04 10:17:59;;;;;;;7.15;1.63;;;11.40;99.90;;;;;;5056864;28;20118;-58
2023/01/04 10:20:49;;;;;;;8.35;1.83;;;11.40;99.90;;;;;;5057062;28;20087;-57
2023/01/04 10:23:21;;;;;;;4.30;1.60;;;11.50;99.90;;;;;;5056246;28;20476;-57
2023/01/04 10:25:51;;;;;;;7.70;1.98;;;11.50;99.90;;;;;;5074623;28;20141;-58
2023/01/04 10:28:27;;;;;;;16.17;2.42;;;11.60;99.90;;;;;;5075025;28;20443;-58
2023/01/04 10:31:00;;;;;;;11.25;2.30;;;11.60;99.90;;;;;;5072598;28;20052;-59
2023/01/04 10:33:30;;;;;;;17.05;2.88;;;11.60;99.90;;;;;;5056108;28;20056;-58
2023/01/04 10:35:56;;;;;;;16.08;3.13;;;11.70;99.90;;;;;;5074484;28;20045;-58
2023/01/04 10:38:27;;;;;;;17.08;3.00;;;11.70;99.90;;;;;;5074236;28;20052;-59
2023/01/04 10:40:54;;;;;;;17.40;2.65;;;11.70;99.90;;;;;;5073706;28;20049;-57
2023/01/04 10:43:29;;;;;;;20.17;3.20;;;11.80;99.90;;;;;;5056974;28;20060;-58
2023/01/04 10:46:00;;;;;;;18.73;2.95;;;11.80;99.90;;;;;;5074279;28;20094;-59
2023/01/04 10:48:31;;;;;;;26.92;3.65;;;11.80;99.90;;;;;;5055967;28;20052;-58
2023/01/04 10:50:58;;;;;;;15.90;3.08;;;11.90;99.90;;;;;;5072610;28;20131;-58
2023/01/04 10:53:28;;;;;;;25.80;3.72;;;11.90;99.90;;;;;;5073873;28;20501;-58
2023/01/04 10:55:58;;;;;;;25.58;3.75;;;11.90;99.90;;;;;;5073765;28;20113;-58
2023/01/04 10:58:27;;;;;;;17.83;3.60;;;11.90;99.90;;;;;;5056519;28;20052;-58
2023/01/04 11:00:55;;;;;;;24.27;4.57;;;11.90;99.90;;;;;;5068336;28;20457;-50
2023/01/04 11:03:23;;;;;;;28.15;4.65;;;11.90;99.90;;;;;;5072652;28;20056;-58
2023/01/04 11:05:53;;;;;;;26.90;5.30;;;11.90;99.90;;;;;;5072917;28;20056;-58
2023/01/04 11:08:21;;;;;;;25.25;4.53;;;12.00;99.90;;;;;;5073769;28;20056;-57
2023/01/04 11:10:51;;;;;;;27.52;4.95;;;12.00;99.90;;;;;;5054990;28;20076;-57
2023/01/04 11:13:18;;;;;;;26.10;4.10;;;12.00;99.90;;;;;;5073159;28;20480;-58
2023/01/04 11:15:46;;;;;;;23.08;4.00;;;12.00;99.90;;;;;;5073613;28;20106;-56
2023/01/04 11:18:13;;;;;;;25.08;3.83;;;12.00;99.90;;;;;;5055874;28;20056;-57
2023/01/04 11:20:40;;;;;;;26.35;3.90;;;12.00;99.90;;;;;;5053165;28;20075;-58
2023/01/04 11:23:09;;;;;;;24.50;3.88;;;12.00;99.90;;;;;;5055831;28;20463;-58
2023/01/04 11:25:37;;;;;;;25.83;3.78;;;12.00;99.90;;;;;;5073559;28;20133;-57
2023/01/04 11:28:12;;;;;;;20.40;3.67;;;12.00;99.90;;;;;;5055635;28;20102;-56
2023/01/04 11:30:45;;;;;;;19.27;3.53;;;12.10;99.90;;;;;;5071989;28;20439;-56
2023/01/04 11:33:13;;;;;;;27.58;4.32;;;12.10;99.90;;;;;;5055422;28;20053;-58
2023/01/04 11:35:41;;;;;;;23.83;4.38;;;12.10;99.90;;;;;;5072676;28;20400;-55
2023/01/04 11:38:13;;;;;;;23.35;3.53;;;12.10;99.90;;;;;;5073256;28;20084;-59
2023/01/04 11:40:41;;;;;;;15.60;3.10;;;12.20;99.90;;;;;;5072606;28;20090;-58
2023/01/04 11:43:16;;;;;;;32.28;4.07;;;12.20;99.90;;;;;;5055210;28;20064;-56
2023/01/04 11:45:53;;;;;;;26.23;3.70;;;12.20;99.90;;;;;;5055445;28;20053;-57
2023/01/04 11:48:19;;;;;;;23.58;3.85;;;12.20;99.90;;;;;;5073204;28;20044;-58
2023/01/04 11:50:46;;;;;;;24.73;4.43;;;12.20;99.90;;;;;;5063321;28;20095;-57
2023/01/04 11:53:28;;;;;;;19.35;3.25;;;12.20;99.90;;;;;;5051188;28;20106;-56
2023/01/04 11:56:14;;;;;;;20.10;3.45;;;12.30;99.90;;;;;;5051794;28;20049;-56
2023/01/04 11:58:43;;;;;;;22.65;3.33;;;12.30;99.90;;;;;;5053031;28;20053;-57
2023/01/04 12:01:20;;;;;;;17.88;3.00;;;12.30;99.90;;;;;;5051470;28;20134;-58
2023/01/04 12:03:46;;;;;;;22.10;3.25;;;12.30;99.90;;;;;;5052958;28;20459;-57
2023/01/04 12:06:15;;;;;;;13.82;2.63;;;12.30;99.90;;;;;;5050689;28;20481;-57
2023/01/04 12:08:42;;;;;;;13.27;2.38;;;12.30;99.90;;;;;;5050837;28;20052;-56
2023/01/04 12:11:14;;;;;;;16.58;2.65;;;12.30;99.90;;;;;;5048962;28;20412;-56
2023/01/04 12:13:42;;;;;;;12.25;2.55;;;12.30;99.90;;;;;;5051644;28;20103;-56
2023/01/04 12:16:14;;;;;;;15.18;2.63;;;12.30;99.90;;;;;;5050199;28;20053;-57
2023/01/04 12:18:42;;;;;;;9.45;1.75;;;12.40;99.90;;;;;;5051723;28;20444;-56
2023/01/04 12:21:09;;;;;;;11.48;1.75;;;12.40;99.90;;;;;;5049857;28;20041;-57
2023/01/04 12:23:36;;;;;;;9.73;1.60;;;12.40;99.90;;;;;;5046110;28;20393;-55
2023/01/04 12:26:03;;;;;;;9.00;1.90;;;12.40;99.90;;;;;;5049012;28;20056;-56
2023/01/04 12:28:31;;;;;;;6.90;1.55;;;12.40;99.90;;;;;;5052415;28;20439;-53
2023/01/04 12:31:33;;;;;;;4.43;1.20;;;12.40;99.90;;;;;;5052625;28;20126;-57
2023/01/04 12:34:21;;;;;;;4.72;1.10;;;12.40;99.90;;;;;;5046621;28;20055;-56
2023/01/04 12:36:56;;;;;;;3.50;1.25;;;12.40;99.90;;;;;;5018422;28;20088;-56
2023/01/04 12:39:28;;;;;;;4.95;1.00;;;12.50;99.90;;;;;;5051795;28;20045;-54
2023/01/04 12:42:20;;;;;;;4.70;0.90;;;12.40;99.90;;;;;;5051453;28;20091;-55
2023/01/04 12:45:21;;;;;;;6.45;1.00;;;12.50;99.90;;;;;;5058030;28;20412;-56
2023/01/04 12:51:21;;;;;;;10.77;2.05;;;12.40;99.90;;;;;;5051511;28;20052;-56
2023/01/04 12:53:52;;;;;;;9.05;1.65;;;12.40;99.90;;;;;;5052383;28;20059;-57
2023/01/04 12:56:19;;;;;;;11.20;2.10;;;12.40;99.90;;;;;;5049631;28;20394;-56
2023/01/04 12:59:07;;;;;;;12.48;2.28;;;12.40;99.90;;;;;;5051622;28;20398;-57
2023/01/04 13:01:34;;;;;;;18.05;2.80;;;12.40;99.90;;;;;;5050901;28;20421;-56
2023/01/04 13:04:24;;;;;;;18.08;3.03;;;12.40;99.90;;;;;;5052082;28;20095;-57
2023/01/04 13:06:51;;;;;;;16.88;2.67;;;12.40;99.90;;;;;;5067304;28;20080;-56
2023/01/04 13:09:19;;;;;;;21.90;4.07;;;12.40;99.90;;;;;;5051438;28;20056;-56
2023/01/04 13:11:55;;;;;;;17.30;3.35;;;12.30;99.90;;;;;;5052033;28;20475;-57
2023/01/04 13:14:27;;;;;;;23.65;3.70;;;12.30;99.90;;;;;;5050640;28;20111;-56
2023/01/04 13:16:59;;;;;;;;;;;12.30;99.90;;;;;;5055268;28;20075;-55
2023/01/04 13:19:28;;;;;;;15.20;3.47;;;12.30;99.90;;;;;;5053950;28;19966;-54
2023/01/04 13:21:54;;;;;;;24.95;3.67;;;12.20;99.90;;;;;;5054121;28;20053;-57
2023/01/04 13:24:23;;;;;;;21.90;3.80;;;12.20;99.90;;;;;;5053942;28;20044;-55
2023/01/04 13:26:50;;;;;;;24.52;3.78;;;12.20;99.90;;;;;;5055157;28;20048;-57
2023/01/04 13:29:19;;;;;;;19.52;2.58;;;12.20;99.90;;;;;;5054884;28;20057;-51
2023/01/04 13:31:51;;;;;;;22.35;4.05;;;12.20;99.90;;;;;;5046261;28;20071;-54
2023/01/04 13:34:19;;;;;;;19.77;3.40;;;12.20;99.90;;;;;;5053147;28;20068;-54
2023/01/04 13:37:08;;;;;;;23.67;4.20;;;12.20;99.90;;;;;;5053847;28;20453;-55
2023/01/04 13:39:35;;;;;;;27.15;4.38;;;12.10;99.90;;;;;;5050064;28;20104;-50
2023/01/04 13:42:02;;;;;;;30.88;4.88;;;12.10;99.90;;;;;;5052072;28;20373;-55
2023/01/04 13:44:55;;;;;;;23.67;4.38;;;12.10;99.90;;;;;;5060370;28;20041;-57
2023/01/04 13:47:22;;;;;;;26.40;4.60;;;12.10;99.90;;;;;;5041648;28;20083;-57